createdAt,value
2018-12-13T00:01:01.640Z,99.90
2018-12-13T00:03:29.873Z,99.90
2018-12-13T00:05:58.100Z,99.90
2018-12-13T00:08:26.322Z,99.90
2018-12-13T00:10:54.553Z,99.90
2018-12-13T00:13:22.776Z,99.90
2018-12-13T00:15:51.089Z,99.90
2018-12-13T00:18:19.304Z,99.90
2018-12-13T00:20:47.616Z,99.90
2018-12-13T00:23:15.856Z,99.90
2018-12-13T00:25:44.180Z,99.90
2018-12-13T00:28:12.406Z,99.90
2018-12-13T00:30:40.637Z,99.90
2018-12-13T00:33:08.862Z,99.90
2018-12-13T00:35:37.068Z,99.90
2018-12-13T00:38:05.284Z,99.90
2018-12-13T00:40:33.504Z,99.90
2018-12-13T00:43:01.716Z,99.90
2018-12-13T00:45:29.932Z,99.90
2018-12-13T00:47:58.135Z,99.90
2018-12-13T00:50:26.354Z,99.90
2018-12-13T00:52:54.561Z,99.90
2018-12-13T00:55:22.864Z,99.90
2018-12-13T00:57:51.088Z,99.90
2018-12-13T01:00:19.393Z,99.90
2018-12-13T01:02:47.602Z,99.90
2018-12-13T01:05:15.825Z,99.90
2018-12-13T01:07:44.044Z,99.90
2018-12-13T01:10:12.250Z,99.90
2018-12-13T01:12:40.465Z,99.90
2018-12-13T01:15:08.765Z,99.90
2018-12-13T01:17:36.983Z,99.90
2018-12-13T01:20:05.529Z,99.90
2018-12-13T01:22:33.742Z,99.90
2018-12-13T01:25:01.949Z,99.90
2018-12-13T01:27:30.169Z,99.90
2018-12-13T01:29:58.360Z,99.90
2018-12-13T01:32:26.575Z,99.90
2018-12-13T01:34:54.772Z,99.90
2018-12-13T01:37:22.984Z,99.90
2018-12-13T01:39:51.670Z,99.90
2018-12-13T01:42:19.975Z,99.90
2018-12-13T01:44:48.202Z,99.90
2018-12-13T01:47:16.413Z,99.90
2018-12-13T01:49:44.625Z,99.90
2018-12-13T01:52:12.835Z,99.90
2018-12-13T01:54:41.048Z,99.90
2018-12-13T01:57:09.263Z,99.90
2018-12-13T01:59:37.473Z,99.90
2018-12-13T02:02:05.685Z,99.90
2018-12-13T02:04:33.895Z,99.90
2018-12-13T02:07:02.104Z,99.90
2018-12-13T02:09:30.307Z,99.90
2018-12-13T02:11:58.514Z,99.90
2018-12-13T02:14:26.732Z,99.90
2018-12-13T02:16:55.289Z,99.90
2018-12-13T02:19:23.504Z,99.90
2018-12-13T02:21:51.705Z,99.90
2018-12-13T02:24:19.913Z,99.90
2018-12-13T02:26:48.133Z,99.90
2018-12-13T02:29:16.411Z,99.90
2018-12-13T02:31:44.627Z,99.90
2018-12-13T02:34:12.829Z,99.90
2018-12-13T02:36:41.130Z,99.90
2018-12-13T02:39:09.427Z,99.90
2018-12-13T02:41:37.837Z,99.90
2018-12-13T02:44:06.128Z,99.90
2018-12-13T02:46:34.436Z,99.90
2018-12-13T02:49:08.779Z,99.90
2018-12-13T02:51:37.201Z,99.90
2018-12-13T02:54:05.572Z,99.90
2018-12-13T02:56:33.779Z,99.90
2018-12-13T02:59:01.990Z,99.90
2018-12-13T03:01:30.199Z,99.90
2018-12-13T03:03:58.423Z,99.90
2018-12-13T03:06:27.035Z,99.90
2018-12-13T03:08:55.255Z,99.90
2018-12-13T03:11:23.552Z,99.90
2018-12-13T03:13:51.854Z,99.90
2018-12-13T03:16:20.169Z,99.90
2018-12-13T03:18:48.458Z,99.90
2018-12-13T03:21:16.686Z,99.90
2018-12-13T03:23:44.892Z,99.90
2018-12-13T03:26:13.104Z,99.90
2018-12-13T03:28:41.413Z,99.90
2018-12-13T03:31:09.626Z,99.90
2018-12-13T03:33:37.852Z,99.90
2018-12-13T03:36:06.137Z,99.90
2018-12-13T03:38:34.352Z,99.90
2018-12-13T03:41:02.831Z,99.90
2018-12-13T03:43:31.051Z,99.90
2018-12-13T03:45:59.240Z,99.90
2018-12-13T03:48:27.462Z,99.90
2018-12-13T03:50:55.661Z,99.90
2018-12-13T03:53:23.946Z,99.90
2018-12-13T03:55:52.141Z,99.90
2018-12-13T03:58:20.365Z,99.90
2018-12-13T04:00:48.564Z,99.90
2018-12-13T04:03:16.791Z,99.90
2018-12-13T04:05:44.987Z,99.90
2018-12-13T04:08:13.192Z,99.90
2018-12-13T04:10:41.431Z,99.90
2018-12-13T04:13:09.712Z,99.90
2018-12-13T04:15:37.917Z,99.90
2018-12-13T04:18:06.210Z,99.90
2018-12-13T04:20:34.429Z,99.90
2018-12-13T04:23:02.848Z,99.90
2018-12-13T04:25:31.076Z,99.90
2018-12-13T04:27:59.347Z,99.90
2018-12-13T04:30:27.594Z,99.90
2018-12-13T04:32:55.830Z,99.90
2018-12-13T04:35:24.057Z,99.90
2018-12-13T04:37:52.372Z,99.90
2018-12-13T04:40:20.593Z,99.90
2018-12-13T04:42:48.858Z,99.90
2018-12-13T04:45:17.070Z,99.90
2018-12-13T04:47:45.303Z,99.90
2018-12-13T04:50:13.619Z,99.90
2018-12-13T04:52:41.844Z,99.90
2018-12-13T04:55:10.059Z,99.90
2018-12-13T04:57:38.291Z,99.90
2018-12-13T05:00:07.229Z,99.90
2018-12-13T05:02:35.448Z,99.90
2018-12-13T05:05:03.982Z,99.90
2018-12-13T05:07:32.296Z,99.90
2018-12-13T05:10:00.508Z,99.90
2018-12-13T05:12:28.749Z,99.90
2018-12-13T05:14:56.955Z,99.90
2018-12-13T05:17:25.205Z,99.90
2018-12-13T05:19:53.516Z,99.90
2018-12-13T05:22:21.744Z,99.90
2018-12-13T05:24:49.972Z,99.90
2018-12-13T05:27:18.209Z,99.90
2018-12-13T05:29:46.430Z,99.90
2018-12-13T05:32:14.677Z,99.90
2018-12-13T05:34:42.895Z,99.90
2018-12-13T05:37:11.128Z,99.90
2018-12-13T05:39:39.359Z,99.90
2018-12-13T05:42:07.568Z,99.90
2018-12-13T05:44:35.784Z,99.90
2018-12-13T05:47:04.012Z,99.90
2018-12-13T05:49:32.244Z,99.90
2018-12-13T05:52:00.503Z,99.90
2018-12-13T05:54:28.786Z,99.90
2018-12-13T05:56:56.991Z,99.90
2018-12-13T05:59:25.228Z,99.90
2018-12-13T06:01:53.442Z,99.90
2018-12-13T06:04:21.659Z,99.90
2018-12-13T06:06:49.871Z,99.90
2018-12-13T06:09:18.109Z,99.90
2018-12-13T06:11:46.324Z,99.90
2018-12-13T06:14:14.672Z,99.90
2018-12-13T06:16:42.884Z,99.90
2018-12-13T06:19:11.120Z,99.90
2018-12-13T06:21:39.364Z,99.90
2018-12-13T06:24:07.608Z,99.90
2018-12-13T06:26:35.818Z,99.90
2018-12-13T06:29:04.188Z,99.90
2018-12-13T06:31:32.412Z,99.90
2018-12-13T06:34:00.655Z,99.90
2018-12-13T06:36:28.884Z,99.90
2018-12-13T06:38:57.110Z,99.90
2018-12-13T06:41:25.308Z,99.90
2018-12-13T06:43:53.545Z,99.90
2018-12-13T06:46:21.764Z,99.90
2018-12-13T06:48:50.046Z,99.90
2018-12-13T06:51:18.249Z,99.90
2018-12-13T06:53:46.466Z,99.90
2018-12-13T06:56:14.760Z,99.90
2018-12-13T06:58:43.000Z,99.90
2018-12-13T07:01:11.215Z,99.90
2018-12-13T07:03:39.441Z,99.90
2018-12-13T07:06:07.687Z,99.90
2018-12-13T07:08:35.922Z,99.90
2018-12-13T07:11:04.173Z,99.90
2018-12-13T07:13:32.400Z,99.90
2018-12-13T07:16:00.647Z,99.90
2018-12-13T07:18:28.856Z,99.90
2018-12-13T07:20:57.097Z,99.90
2018-12-13T07:23:25.324Z,99.90
2018-12-13T07:25:53.553Z,99.90
2018-12-13T07:28:21.764Z,99.90
2018-12-13T07:30:50.077Z,99.90
2018-12-13T07:33:18.313Z,99.90
2018-12-13T07:35:46.556Z,99.90
2018-12-13T07:38:14.760Z,99.90
2018-12-13T07:40:42.989Z,99.90
2018-12-13T07:43:11.305Z,99.90
2018-12-13T07:45:39.526Z,99.90
2018-12-13T07:48:07.899Z,99.90
2018-12-13T07:50:36.152Z,99.90
2018-12-13T07:53:04.371Z,99.90
2018-12-13T07:55:32.612Z,99.90
2018-12-13T07:58:00.829Z,99.90
2018-12-13T08:00:29.129Z,99.90
2018-12-13T08:02:57.338Z,99.90
2018-12-13T08:05:25.566Z,99.90
2018-12-13T08:07:53.778Z,99.90
2018-12-13T08:10:22.133Z,99.90
2018-12-13T08:12:50.433Z,99.90
2018-12-13T08:15:18.668Z,99.90
2018-12-13T08:17:46.957Z,99.90
2018-12-13T08:20:15.181Z,99.90
2018-12-13T08:22:43.381Z,99.90
2018-12-13T08:25:11.685Z,99.90
2018-12-13T08:27:39.968Z,99.90
2018-12-13T08:30:08.365Z,99.90
2018-12-13T08:32:36.600Z,99.90
2018-12-13T08:35:05.058Z,99.90
2018-12-13T08:37:33.292Z,99.90
2018-12-13T08:40:01.534Z,99.90
2018-12-13T08:42:29.962Z,99.90
2018-12-13T08:44:58.204Z,99.90
2018-12-13T08:47:26.440Z,99.90
2018-12-13T08:49:54.679Z,99.90
2018-12-13T08:52:22.904Z,99.90
2018-12-13T08:54:51.145Z,99.90
2018-12-13T08:57:19.400Z,99.90
2018-12-13T08:59:47.660Z,99.90
2018-12-13T09:02:15.890Z,99.90
2018-12-13T09:04:44.135Z,99.90
2018-12-13T09:07:12.376Z,99.90
2018-12-13T09:09:40.629Z,99.90
2018-12-13T09:12:08.914Z,99.90
2018-12-13T09:14:37.135Z,99.90
2018-12-13T09:17:05.383Z,99.90
2018-12-13T09:19:33.607Z,99.90
2018-12-13T09:22:01.855Z,99.90
2018-12-13T09:24:30.089Z,99.90
2018-12-13T09:26:58.428Z,99.90
2018-12-13T09:29:26.664Z,99.90
2018-12-13T09:31:54.939Z,99.90
2018-12-13T09:34:23.185Z,99.90
2018-12-13T09:36:51.533Z,99.90
2018-12-13T09:39:19.761Z,99.90
2018-12-13T09:41:47.996Z,99.90
2018-12-13T09:44:17.511Z,99.90
2018-12-13T09:46:46.814Z,99.90
2018-12-13T09:49:15.139Z,99.90
2018-12-13T09:51:43.380Z,99.90
2018-12-13T09:54:11.635Z,99.90
2018-12-13T09:56:39.993Z,99.90
2018-12-13T09:59:08.224Z,99.90
2018-12-13T10:01:36.461Z,99.90
2018-12-13T10:04:04.768Z,99.90
2018-12-13T10:06:33.064Z,99.90
2018-12-13T10:09:01.321Z,99.90
2018-12-13T10:11:29.653Z,99.90
2018-12-13T10:13:57.896Z,99.90
2018-12-13T10:16:26.248Z,99.90
2018-12-13T10:18:54.443Z,99.90
2018-12-13T10:21:22.700Z,99.90
2018-12-13T10:23:50.931Z,99.90
2018-12-13T10:26:19.182Z,99.90
2018-12-13T10:28:47.413Z,99.90
2018-12-13T10:31:15.741Z,99.90
2018-12-13T10:33:44.086Z,99.90
2018-12-13T10:36:12.349Z,99.90
2018-12-13T10:38:40.676Z,99.90
2018-12-13T10:41:08.914Z,99.90
2018-12-13T10:43:37.158Z,99.90
2018-12-13T10:46:05.478Z,99.90
2018-12-13T10:48:33.778Z,99.90
2018-12-13T10:51:02.154Z,99.90
2018-12-13T10:53:30.412Z,99.90
2018-12-13T10:55:58.663Z,99.90
2018-12-13T10:58:26.892Z,99.90
2018-12-13T11:01:00.609Z,99.90
2018-12-13T11:03:34.262Z,99.90
2018-12-13T11:06:02.595Z,99.90
2018-12-13T11:08:30.812Z,99.90
2018-12-13T11:10:59.228Z,99.90
2018-12-13T11:13:27.520Z,99.90
2018-12-13T11:15:55.801Z,99.90
2018-12-13T11:18:24.152Z,99.90
2018-12-13T11:20:52.389Z,99.90
2018-12-13T11:23:20.624Z,99.90
2018-12-13T11:25:48.862Z,99.90
2018-12-13T11:28:28.488Z,99.90
2018-12-13T11:30:56.833Z,99.90
2018-12-13T11:33:25.101Z,99.90
2018-12-13T11:35:53.418Z,99.90
2018-12-13T11:38:21.612Z,99.90
2018-12-13T11:40:49.840Z,99.90
2018-12-13T11:43:18.063Z,99.90
2018-12-13T11:45:46.270Z,99.90
2018-12-13T11:48:14.497Z,99.90
2018-12-13T11:50:42.784Z,99.90
2018-12-13T11:53:11.000Z,99.90
2018-12-13T11:55:39.975Z,99.90
2018-12-13T11:58:10.319Z,99.90
2018-12-13T12:00:38.536Z,99.90
2018-12-13T12:03:06.923Z,99.90
2018-12-13T12:05:35.147Z,99.90
2018-12-13T12:08:03.394Z,99.90
2018-12-13T12:10:31.839Z,99.90
2018-12-13T12:13:00.127Z,99.90
2018-12-13T12:15:28.469Z,99.90
2018-12-13T12:17:56.704Z,99.90
2018-12-13T12:20:25.141Z,99.90
2018-12-13T12:22:53.481Z,99.90
2018-12-13T12:25:21.689Z,99.90
2018-12-13T12:27:49.976Z,99.90
2018-12-13T12:30:18.272Z,99.90
2018-12-13T12:32:46.511Z,99.90
2018-12-13T12:35:14.810Z,99.90
2018-12-13T12:37:43.044Z,99.90
2018-12-13T12:40:11.264Z,99.90
2018-12-13T12:42:39.489Z,99.90
2018-12-13T12:45:07.939Z,99.90
2018-12-13T12:47:36.156Z,99.90
2018-12-13T12:50:05.856Z,99.90
2018-12-13T12:52:34.151Z,99.90
2018-12-13T12:55:02.460Z,99.90
2018-12-13T12:57:30.697Z,99.90
2018-12-13T12:59:59.031Z,99.90
2018-12-13T13:02:28.373Z,99.90
2018-12-13T13:04:56.582Z,99.20
2018-12-13T13:07:24.821Z,98.40
2018-12-13T13:09:53.056Z,99.30
2018-12-13T13:12:21.285Z,99.30
2018-12-13T13:14:50.165Z,98.10
2018-12-13T13:17:18.399Z,97.80
2018-12-13T13:19:46.609Z,97.30
2018-12-13T13:22:14.832Z,97.30
2018-12-13T13:24:43.044Z,98.80
2018-12-13T13:27:11.273Z,98.80
2018-12-13T13:29:39.476Z,98.00
2018-12-13T13:32:07.694Z,98.30
2018-12-13T13:34:35.880Z,99.70
2018-12-13T13:37:04.169Z,98.50
2018-12-13T13:39:32.398Z,97.80
2018-12-13T13:42:00.605Z,96.90
2018-12-13T13:44:34.182Z,97.10
2018-12-13T13:47:02.388Z,96.70
2018-12-13T13:49:30.586Z,98.30
2018-12-13T13:51:58.816Z,98.00
2018-12-13T13:54:27.101Z,98.10
2018-12-13T13:56:55.289Z,97.80
2018-12-13T13:59:23.505Z,98.50
2018-12-13T14:01:51.731Z,99.10
2018-12-13T14:04:20.016Z,98.60
2018-12-13T14:06:48.264Z,98.80
2018-12-13T14:09:16.490Z,97.70
2018-12-13T14:11:44.676Z,97.70
2018-12-13T14:14:12.925Z,96.50
2018-12-13T14:16:41.213Z,98.00
2018-12-13T14:19:09.415Z,98.00
2018-12-13T14:21:37.645Z,96.90
2018-12-13T14:24:05.854Z,97.90
2018-12-13T14:26:34.043Z,96.30
2018-12-13T14:29:02.273Z,96.40
2018-12-13T14:31:30.468Z,95.70
2018-12-13T14:33:58.696Z,95.60
2018-12-13T14:36:26.891Z,95.70
2018-12-13T14:38:55.098Z,97.30
2018-12-13T14:41:23.284Z,96.20
2018-12-13T14:43:51.487Z,96.70
2018-12-13T14:46:19.684Z,96.50
2018-12-13T14:48:47.890Z,97.00
2018-12-13T14:51:16.083Z,97.00
2018-12-13T14:53:44.310Z,96.50
2018-12-13T14:56:12.589Z,95.90
2018-12-13T14:58:40.797Z,96.20
2018-12-13T15:01:08.985Z,96.60
2018-12-13T15:03:37.196Z,97.60
2018-12-13T15:06:05.389Z,95.80
2018-12-13T15:08:33.603Z,96.20
2018-12-13T15:11:01.896Z,95.90
2018-12-13T15:13:30.132Z,95.60
2018-12-13T15:15:58.416Z,96.00
2018-12-13T15:18:26.628Z,95.20
2018-12-13T15:20:54.836Z,95.90
2018-12-13T15:23:23.042Z,97.50
2018-12-13T15:25:51.248Z,96.00
2018-12-13T15:28:19.435Z,96.30
2018-12-13T15:30:47.713Z,97.00
2018-12-13T15:33:15.944Z,96.10
2018-12-13T15:35:44.263Z,95.80
2018-12-13T15:38:12.491Z,96.20
2018-12-13T15:40:40.712Z,98.80
2018-12-13T15:43:08.932Z,99.90
2018-12-13T15:45:37.232Z,99.90
2018-12-13T15:48:05.447Z,99.90
2018-12-13T15:50:33.761Z,99.90
2018-12-13T15:53:01.995Z,99.90
2018-12-13T15:55:30.300Z,99.90
2018-12-13T15:57:58.605Z,99.90
2018-12-13T16:00:26.824Z,99.90
2018-12-13T16:02:55.085Z,99.90
2018-12-13T16:05:23.320Z,99.90
2018-12-13T16:07:51.544Z,99.90
2018-12-13T16:10:19.840Z,99.90
2018-12-13T16:12:48.059Z,99.90
2018-12-13T16:15:16.278Z,99.90
2018-12-13T16:17:44.503Z,99.90
2018-12-13T16:20:12.815Z,99.90
2018-12-13T16:22:41.052Z,99.90
2018-12-13T16:25:09.279Z,99.90
2018-12-13T16:27:37.500Z,99.90
2018-12-13T16:30:07.327Z,99.90
2018-12-13T16:32:35.660Z,99.90
2018-12-13T16:35:04.080Z,99.90
2018-12-13T16:37:32.291Z,99.90
2018-12-13T16:40:00.530Z,99.90
2018-12-13T16:42:29.052Z,99.90
2018-12-13T16:44:57.300Z,99.90
2018-12-13T16:47:25.548Z,99.90
2018-12-13T16:49:53.780Z,99.90
2018-12-13T16:52:21.996Z,99.90
2018-12-13T16:54:50.234Z,99.90
2018-12-13T16:57:18.551Z,99.90
2018-12-13T16:59:46.867Z,99.90
2018-12-13T17:02:15.151Z,99.90
2018-12-13T17:04:43.414Z,99.90
2018-12-13T17:07:11.836Z,99.90
2018-12-13T17:09:40.163Z,99.90
2018-12-13T17:12:08.461Z,99.90
2018-12-13T17:14:37.776Z,99.90
2018-12-13T17:17:06.255Z,99.90
2018-12-13T17:19:34.723Z,99.90
2018-12-13T17:22:03.033Z,99.90
2018-12-13T17:24:33.822Z,99.90
2018-12-13T17:27:02.394Z,99.90
2018-12-13T17:29:30.641Z,99.90
2018-12-13T17:32:02.009Z,99.90
2018-12-13T17:34:30.342Z,99.90
2018-12-13T17:36:59.473Z,99.90
2018-12-13T17:39:27.744Z,99.90
2018-12-13T17:42:00.792Z,99.90
2018-12-13T17:44:29.010Z,99.90
2018-12-13T17:46:57.241Z,99.90
2018-12-13T17:49:25.645Z,99.90
2018-12-13T17:51:53.923Z,99.90
2018-12-13T17:54:22.148Z,99.90
2018-12-13T17:56:50.353Z,99.90
2018-12-13T17:59:18.574Z,99.90
2018-12-13T18:01:46.789Z,99.90
2018-12-13T18:04:15.108Z,99.90
2018-12-13T18:06:43.320Z,99.90
2018-12-13T18:09:11.543Z,99.90
2018-12-13T18:11:39.748Z,99.90
2018-12-13T18:14:08.075Z,99.90
2018-12-13T18:16:36.361Z,99.90
2018-12-13T18:19:04.663Z,99.90
2018-12-13T18:21:32.915Z,99.90
2018-12-13T18:24:01.199Z,99.90
2018-12-13T18:26:29.416Z,99.90
2018-12-13T18:28:57.652Z,99.90
2018-12-13T18:31:25.894Z,99.90
2018-12-13T18:34:00.219Z,99.90
2018-12-13T18:36:29.017Z,99.90
2018-12-13T18:38:57.433Z,99.90
2018-12-13T18:41:25.745Z,99.90
2018-12-13T18:43:53.949Z,99.90
2018-12-13T18:46:22.179Z,99.90
2018-12-13T18:48:50.410Z,99.90
2018-12-13T18:51:18.649Z,99.90
2018-12-13T18:53:46.938Z,99.90
2018-12-13T18:56:15.273Z,99.90
2018-12-13T18:58:43.698Z,99.90
2018-12-13T19:01:11.988Z,99.90
2018-12-13T19:03:40.227Z,99.90
2018-12-13T19:06:08.450Z,99.90
2018-12-13T19:08:38.385Z,99.90
2018-12-13T19:11:07.033Z,99.90
2018-12-13T19:13:35.223Z,99.90
2018-12-13T19:16:03.524Z,99.90
2018-12-13T19:18:31.765Z,99.90
2018-12-13T19:21:00.221Z,99.90
2018-12-13T19:23:28.727Z,99.90
2018-12-13T19:25:57.112Z,99.90
2018-12-13T19:28:25.670Z,99.90
2018-12-13T19:30:54.043Z,99.90
2018-12-13T19:33:22.384Z,99.90
2018-12-13T19:35:50.727Z,99.90
2018-12-13T19:38:19.152Z,99.90
2018-12-13T19:40:48.478Z,99.90
2018-12-13T19:43:16.941Z,99.90
2018-12-13T19:45:45.304Z,99.90
2018-12-13T19:48:13.684Z,99.90
2018-12-13T19:50:42.833Z,99.90
2018-12-13T19:53:11.287Z,99.90
2018-12-13T19:55:39.835Z,99.90
2018-12-13T19:58:08.158Z,99.90
2018-12-13T20:00:36.696Z,99.90
2018-12-13T20:03:05.180Z,99.90
2018-12-13T20:05:33.614Z,99.90
2018-12-13T20:08:02.114Z,99.90
2018-12-13T20:10:30.545Z,99.90
2018-12-13T20:12:58.814Z,99.90
2018-12-13T20:15:27.288Z,99.90
2018-12-13T20:17:55.615Z,99.90
2018-12-13T20:20:24.036Z,99.90
2018-12-13T20:22:52.320Z,99.90
2018-12-13T20:25:20.916Z,99.90
2018-12-13T20:27:49.256Z,99.90
2018-12-13T20:30:17.575Z,99.90
2018-12-13T20:32:46.213Z,99.90
2018-12-13T20:35:14.951Z,99.90
2018-12-13T20:37:43.420Z,99.90
2018-12-13T20:40:12.142Z,99.90
2018-12-13T20:42:40.530Z,99.90
2018-12-13T20:45:09.253Z,99.90
2018-12-13T20:47:37.718Z,99.90
2018-12-13T20:50:06.788Z,99.90
2018-12-13T20:52:35.123Z,99.90
2018-12-13T20:55:03.856Z,99.90
2018-12-13T20:57:32.261Z,99.90
2018-12-13T21:00:00.573Z,99.90
2018-12-13T21:02:28.950Z,99.90
2018-12-13T21:04:57.256Z,99.90
2018-12-13T21:07:30.940Z,99.90
2018-12-13T21:09:59.952Z,99.90
2018-12-13T21:12:28.473Z,99.90
2018-12-13T21:14:56.875Z,99.90
2018-12-13T21:17:25.338Z,99.90
2018-12-13T21:19:53.637Z,99.90
2018-12-13T21:22:21.908Z,99.90
2018-12-13T21:24:50.241Z,99.90
2018-12-13T21:27:18.521Z,99.90
2018-12-13T21:29:46.945Z,99.90
2018-12-13T21:32:15.382Z,99.90
2018-12-13T21:34:44.023Z,99.90
2018-12-13T21:37:12.315Z,99.90
2018-12-13T21:39:40.853Z,99.90
2018-12-13T21:42:09.842Z,99.90
2018-12-13T21:44:38.528Z,99.90
2018-12-13T21:47:07.304Z,99.90
2018-12-13T21:49:35.524Z,99.90
2018-12-13T21:52:04.077Z,99.90
2018-12-13T21:54:32.443Z,99.90
2018-12-13T21:57:01.257Z,99.90
2018-12-13T21:59:29.641Z,99.90
2018-12-13T22:01:58.827Z,99.90
2018-12-13T22:04:27.228Z,99.90
2018-12-13T22:06:56.789Z,99.90
2018-12-13T22:09:25.524Z,99.90
2018-12-13T22:11:53.936Z,99.90
2018-12-13T22:14:22.633Z,99.90
2018-12-13T22:16:50.914Z,99.90
2018-12-13T22:19:19.196Z,99.90
2018-12-13T22:21:47.509Z,99.90
2018-12-13T22:24:15.958Z,99.90
2018-12-13T22:26:44.417Z,99.90
2018-12-13T22:29:12.710Z,99.90
2018-12-13T22:31:41.093Z,99.90
2018-12-13T22:34:09.453Z,99.90
2018-12-13T22:36:37.982Z,99.90
2018-12-13T22:39:07.392Z,99.90
2018-12-13T22:41:36.469Z,99.90
2018-12-13T22:44:04.964Z,99.90
2018-12-13T22:46:33.497Z,99.90
2018-12-13T22:49:01.975Z,99.90
2018-12-13T22:51:30.430Z,99.90
2018-12-13T22:54:01.932Z,99.90
2018-12-13T22:56:30.487Z,99.90
2018-12-13T22:58:58.751Z,99.90
2018-12-13T23:01:27.502Z,99.90
2018-12-13T23:03:55.933Z,99.90
2018-12-13T23:06:24.255Z,99.90
2018-12-13T23:08:52.488Z,99.90
2018-12-13T23:11:20.698Z,99.90
2018-12-13T23:13:48.937Z,99.90
2018-12-13T23:16:17.228Z,99.90
2018-12-13T23:18:45.436Z,99.90
2018-12-13T23:21:13.780Z,99.90
2018-12-13T23:23:42.035Z,99.90
2018-12-13T23:26:10.280Z,99.90
2018-12-13T23:28:38.511Z,99.90
2018-12-13T23:31:06.747Z,99.90
2018-12-13T23:33:35.039Z,99.90
2018-12-13T23:36:03.372Z,99.90
2018-12-13T23:38:31.732Z,99.90
2018-12-13T23:40:59.972Z,99.90
2018-12-13T23:43:28.263Z,99.90
2018-12-13T23:45:56.489Z,99.90
2018-12-13T23:48:24.755Z,99.90
2018-12-13T23:50:52.987Z,99.90
2018-12-13T23:53:21.274Z,99.90
2018-12-13T23:55:49.624Z,99.90
2018-12-13T23:58:17.868Z,99.90
